Time;durP1;ratioP1;P1;durP2;ratioP2;P2;SDS_P1;SDS_P2;PMS_P1;PMS_P2;Temp;Humidity;BMP_temperature;BMP_pressure;BME280_temperature;BME280_humidity;BME280_pressure;Samples;Min_cycle;Max_cycle;Signal;HPM_P1;HPM_P2
2023/04/17 00:01:07;;;;;;;34.50;17.85;;;;;;;9.28;100.00;102505.09;5038766;28;20029;-87
2023/04/17 00:03:32;;;;;;;33.88;17.73;;;;;;;8.91;100.00;102504.56;5023381;28;20025;-86
2023/04/17 00:05:58;;;;;;;37.72;19.33;;;;;;;9.14;100.00;102513.63;5021267;28;20029;-86
2023/04/17 00:08:23;;;;;;;37.13;20.83;;;;;;;9.16;100.00;102505.75;5025254;28;20032;-86
2023/04/17 00:10:48;;;;;;;34.95;18.17;;;;;;;8.77;100.00;102509.50;5019424;28;20397;-86
2023/04/17 00:13:14;;;;;;;34.40;17.42;;;;;;;9.02;100.00;102505.06;5017547;28;20033;-86
2023/04/17 00:15:39;;;;;;;37.33;19.50;;;;;;;8.67;100.00;102505.03;5012011;28;20021;-86
2023/04/17 00:18:04;;;;;;;35.30;18.55;;;;;;;8.78;100.00;102499.16;5024389;28;20115;-86
2023/04/17 00:20:30;;;;;;;33.05;16.77;;;;;;;9.14;100.00;102508.03;5028751;28;20032;-86
2023/04/17 00:22:55;;;;;;;43.80;20.08;;;;;;;8.98;100.00;102509.69;5026827;28;20033;-86
2023/04/17 00:25:21;;;;;;;35.10;19.55;;;;;;;8.95;100.00;102516.72;5029991;28;20032;-86
2023/04/17 00:27:48;;;;;;;29.58;17.10;;;;;;;8.64;100.00;102491.72;5021196;28;20564;-86
2023/04/17 00:30:13;;;;;;;31.73;17.13;;;;;;;8.91;100.00;102487.81;5031236;28;20068;-86
2023/04/17 00:32:39;;;;;;;37.28;18.50;;;;;;;9.28;100.00;102509.88;5024864;28;20108;-86
2023/04/17 00:35:04;;;;;;;31.38;16.65;;;;;;;9.23;100.00;102512.81;5047658;28;20486;-86
2023/04/17 00:37:30;;;;;;;33.17;17.23;;;;;;;9.15;100.00;102492.94;5046385;28;20465;-86
2023/04/17 00:39:55;;;;;;;35.35;19.65;;;;;;;9.21;100.00;102515.09;5025575;28;20043;-86
2023/04/17 00:42:20;;;;;;;35.53;19.52;;;;;;;9.13;100.00;102517.59;5027192;28;20489;-87
2023/04/17 00:44:46;;;;;;;45.03;20.17;;;;;;;8.63;100.00;102509.63;5026919;28;20548;-86
2023/04/17 00:47:12;;;;;;;34.75;19.17;;;;;;;8.78;100.00;102501.94;5027545;28;20048;-86
2023/04/17 00:49:37;;;;;;;36.78;17.63;;;;;;;8.98;100.00;102487.34;5028996;28;20025;-86
2023/04/17 00:52:03;;;;;;;34.58;18.38;;;;;;;9.18;100.00;102483.06;5022910;28;20093;-86
2023/04/17 00:54:30;;;;;;;34.50;20.02;;;;;;;9.15;100.00;102492.94;5031413;28;20396;-86
2023/04/17 00:56:56;;;;;;;41.25;20.60;;;;;;;9.14;100.00;102488.47;5020466;28;20032;-86
2023/04/17 00:59:22;;;;;;;39.70;19.67;;;;;;;9.08;100.00;102497.34;5033879;28;20037;-86
2023/04/17 01:01:47;;;;;;;41.28;20.33;;;;;;;8.96;100.00;102500.81;5019794;28;20071;-86
2023/04/17 01:04:13;;;;;;;38.80;20.52;;;;;;;8.81;100.00;102484.53;5015001;28;20124;-85
2023/04/17 01:06:38;;;;;;;46.08;22.50;;;;;;;8.70;100.00;102493.22;5035365;28;20336;-86
2023/04/17 01:09:04;;;;;;;42.95;20.63;;;;;;;8.92;100.00;102511.00;5017488;28;20127;-86
2023/04/17 01:11:29;;;;;;;43.95;21.05;;;;;;;8.68;100.00;102481.53;5016881;28;20071;-86
2023/04/17 01:13:55;;;;;;;44.90;24.48;;;;;;;8.63;100.00;102509.63;5014476;28;20052;-86
2023/04/17 01:16:20;;;;;;;45.75;21.63;;;;;;;8.65;100.00;102498.97;5019508;28;20044;-86
2023/04/17 01:18:49;;;;;;;42.13;21.73;;;;;;;8.80;100.00;102508.84;5018523;28;20602;-86
2023/04/17 01:21:15;;;;;;;42.78;20.90;;;;;;;8.95;100.00;102525.13;5038839;28;20029;-86
2023/04/17 01:23:51;;;;;;;43.70;21.58;;;;;;;8.95;100.00;102510.34;5024590;28;20055;-86
2023/04/17 01:26:22;;;;;;;45.28;22.80;;;;;;;9.09;100.00;102519.38;5019106;28;20091;-86
2023/04/17 01:28:52;;;;;;;40.22;20.90;;;;;;;8.95;100.00;102527.09;5035977;28;20439;-86
2023/04/17 01:31:17;;;;;;;33.72;19.65;;;;;;;8.89;100.00;102517.22;5043323;28;20033;-87
2023/04/17 01:33:43;;;;;;;34.58;20.45;;;;;;;8.95;100.00;102521.50;5037738;28;20036;-86
2023/04/17 01:36:08;;;;;;;36.85;18.80;;;;;;;8.78;100.00;102516.72;5041170;28;20027;-85
2023/04/17 01:38:34;;;;;;;39.47;20.08;;;;;;;8.86;100.00;102517.88;5040243;28;20084;-86
2023/04/17 01:41:07;;;;;;;38.80;20.58;;;;;;;8.94;100.00;102514.28;5038428;28;20039;-86
2023/04/17 01:43:32;;;;;;;39.05;19.45;;;;;;;9.03;100.00;102531.06;5040465;28;20122;-86
2023/04/17 01:45:57;;;;;;;37.30;20.33;;;;;;;8.95;100.00;102516.72;5043320;28;20044;-86
2023/04/17 01:48:23;;;;;;;37.33;20.17;;;;;;;9.09;100.00;102524.97;5042409;28;20028;-86
2023/04/17 01:50:48;;;;;;;37.17;20.83;;;;;;;8.79;100.00;102500.78;5039785;28;20052;-86
2023/04/17 01:53:14;;;;;;;37.30;20.10;;;;;;;8.97;100.00;102519.22;5037736;28;20064;-86
2023/04/17 01:55:39;;;;;;;39.90;20.23;;;;;;;8.93;100.00;102512.63;5034158;28;20031;-86
2023/04/17 01:58:04;;;;;;;44.33;22.23;;;;;;;9.00;100.00;102535.31;5052191;28;20517;-86
2023/04/17 02:00:30;;;;;;;39.40;19.80;;;;;;;9.21;100.00;102535.47;5031366;28;20037;-86
2023/04/17 02:02:55;;;;;;;41.33;21.08;;;;;;;8.64;100.00;102522.41;5036864;28;20095;-86
2023/04/17 02:05:21;;;;;;;39.85;20.45;;;;;;;9.10;100.00;102536.97;5036860;28;20123;-86
2023/04/17 02:07:49;;;;;;;39.65;21.10;;;;;;;9.04;100.00;102538.28;5037989;28;20119;-86
2023/04/17 02:10:14;;;;;;;38.22;18.95;;;;;;;8.90;100.00;102538.44;5037040;28;20473;-86
2023/04/17 02:12:39;;;;;;;37.05;19.27;;;;;;;9.05;100.00;102542.72;5039733;28;20048;-86
2023/04/17 02:15:06;;;;;;;36.22;19.08;;;;;;;9.14;100.00;102543.53;5033912;28;20033;-86
2023/04/17 02:17:31;;;;;;;37.80;20.17;;;;;;;8.92;100.00;102533.34;5034049;28;20378;-86
2023/04/17 02:19:56;;;;;;;38.33;18.85;;;;;;;9.15;100.00;102542.41;5039975;28;20028;-86
2023/04/17 02:22:22;;;;;;;40.30;20.17;;;;;;;8.92;100.00;102538.94;5042753;28;20037;-86
2023/04/17 02:24:47;;;;;;;37.20;19.85;;;;;;;8.93;100.00;102541.38;5034254;28;20029;-86
2023/04/17 02:27:12;;;;;;;41.63;22.15;;;;;;;8.54;100.00;102525.53;5035116;28;20385;-86
2023/04/17 02:29:38;;;;;;;39.97;20.80;;;;;;;8.68;100.00;102534.59;4997113;28;20037;-86
2023/04/17 02:32:03;;;;;;;42.05;22.27;;;;;;;8.53;100.00;102538.66;5014970;28;20040;-86
2023/04/17 02:34:28;;;;;;;40.38;20.77;;;;;;;8.69;100.00;102538.22;5000792;28;20033;-86
2023/04/17 02:36:54;;;;;;;33.60;18.65;;;;;;;8.80;100.00;102531.19;5002707;28;20794;-85
2023/04/17 02:39:19;;;;;;;38.38;20.83;;;;;;;8.85;100.00;102539.38;5003867;28;20426;-87
2023/04/17 02:41:45;;;;;;;37.53;19.50;;;;;;;9.03;100.00;102545.03;5009782;28;20022;-86
2023/04/17 02:44:10;;;;;;;44.80;22.10;;;;;;;8.84;100.00;102537.75;5017977;28;20054;-86
2023/04/17 02:46:35;;;;;;;39.35;20.30;;;;;;;8.92;100.00;102539.75;5003545;28;20017;-86
2023/04/17 02:49:01;;;;;;;46.97;22.55;;;;;;;8.74;100.00;102522.13;5000638;28;20336;-86
2023/04/17 02:51:26;;;;;;;47.95;24.60;;;;;;;8.64;100.00;102533.59;4999260;28;20041;-86
2023/04/17 02:53:52;;;;;;;43.35;21.25;;;;;;;8.70;100.00;102532.28;5015939;28;20040;-86
2023/04/17 02:56:17;;;;;;;46.15;22.90;;;;;;;8.79;100.00;102534.28;5000797;28;20111;-86
2023/04/17 02:58:45;;;;;;;41.55;21.52;;;;;;;8.80;100.00;102528.38;5003335;28;20163;-86
2023/04/17 03:01:11;;;;;;;43.03;23.00;;;;;;;9.01;100.00;102523.00;5018229;28;20074;-86
2023/04/17 03:03:40;;;;;;;45.90;23.08;;;;;;;8.78;100.00;102527.88;5002492;28;20033;-86
2023/04/17 03:06:07;;;;;;;51.20;24.80;;;;;;;8.70;100.00;102532.28;5002864;28;20478;-86
2023/04/17 03:08:34;;;;;;;40.05;23.13;;;;;;;8.55;100.00;102535.53;5022169;28;20533;-86
2023/04/17 03:11:00;;;;;;;43.08;24.20;;;;;;;8.37;100.00;102533.78;5005429;28;20033;-86
2023/04/17 03:13:26;;;;;;;47.22;23.45;;;;;;;8.69;100.00;102538.22;5018809;28;22083;-86
2023/04/17 03:15:51;;;;;;;46.95;24.23;;;;;;;8.62;100.00;102533.13;5004790;28;20128;-86
2023/04/17 03:18:16;;;;;;;51.30;24.90;;;;;;;8.62;100.00;102535.91;5006087;28;20056;-86
2023/04/17 03:20:42;;;;;;;43.60;23.02;;;;;;;8.60;100.00;102537.34;5005949;28;20060;-86
2023/04/17 03:23:07;;;;;;;49.50;24.42;;;;;;;8.60;100.00;102548.53;5023373;28;20033;-86
2023/04/17 03:25:33;;;;;;;46.85;23.35;;;;;;;8.62;100.00;102541.50;5022287;28;20108;-86
2023/04/17 03:27:58;;;;;;;47.38;22.95;;;;;;;8.85;100.00;102544.16;5004427;28;20096;-86
2023/04/17 03:30:23;;;;;;;47.03;25.95;;;;;;;8.45;100.00;102547.00;5017490;28;20111;-86
2023/04/17 03:32:49;;;;;;;50.80;23.30;;;;;;;8.56;100.00;102531.63;5024790;28;20036;-86
2023/04/17 03:35:14;;;;;;;46.28;24.15;;;;;;;8.75;100.00;102542.50;5036213;28;20878;-86
2023/04/17 03:37:39;;;;;;;46.60;24.58;;;;;;;8.73;100.00;102542.00;5022280;28;20029;-86
2023/04/17 03:40:06;;;;;;;51.75;25.95;;;;;;;8.73;100.00;102542.81;5021624;28;20071;-86
2023/04/17 03:42:31;;;;;;;49.63;25.33;;;;;;;8.64;100.00;102549.53;5025409;28;20097;-86
2023/04/17 03:44:56;;;;;;;49.40;23.52;;;;;;;8.48;100.00;102543.56;5023767;28;20174;-86
2023/04/17 03:47:22;;;;;;;58.50;30.13;;;;;;;8.39;100.00;102534.28;5030892;28;20039;-86
2023/04/17 03:49:47;;;;;;;55.83;25.15;;;;;;;8.64;100.00;102543.94;5043008;28;20070;-86
2023/04/17 03:52:13;;;;;;;53.50;26.40;;;;;;;8.67;100.00;102532.94;5025785;28;20044;-86
2023/04/17 03:54:38;;;;;;;55.90;25.55;;;;;;;8.44;100.00;102534.19;5025759;28;20028;-86
2023/04/17 03:57:04;;;;;;;52.80;26.52;;;;;;;8.64;100.00;102518.81;5022300;28;20154;-86
2023/04/17 03:59:30;;;;;;;49.45;26.52;;;;;;;8.47;100.00;102511.22;5022563;28;20032;-86
2023/04/17 04:01:55;;;;;;;54.45;26.77;;;;;;;8.60;100.00;102527.03;5021580;28;20021;-86
2023/04/17 04:04:21;;;;;;;51.65;25.63;;;;;;;8.58;100.00;102520.97;5028206;28;20031;-86
2023/04/17 04:06:48;;;;;;;59.10;27.42;;;;;;;8.59;100.00;102519.78;5024770;28;20017;-86
2023/04/17 04:09:13;;;;;;;60.65;29.92;;;;;;;8.65;100.00;102523.25;5043804;28;20037;-86
2023/04/17 04:11:39;;;;;;;57.83;26.67;;;;;;;8.80;100.00;102530.34;5042798;28;20024;-86
2023/04/17 04:14:04;;;;;;;53.47;24.30;;;;;;;8.62;100.00;102535.06;5037640;28;20033;-86
2023/04/17 04:16:29;;;;;;;53.85;26.50;;;;;;;8.50;100.00;102533.72;5002489;28;20036;-86
2023/04/17 04:18:55;;;;;;;48.17;26.27;;;;;;;8.67;100.00;102532.13;5039011;28;20517;-87
2023/04/17 04:21:20;;;;;;;53.28;26.05;;;;;;;8.68;100.00;102520.63;5023891;28;20032;-86
2023/04/17 04:23:45;;;;;;;48.00;25.33;;;;;;;8.83;100.00;102543.66;5027030;28;20116;-86
2023/04/17 04:26:11;;;;;;;48.03;24.75;;;;;;;8.84;100.00;102537.75;5039863;28;20079;-86
2023/04/17 04:28:37;;;;;;;51.83;24.00;;;;;;;8.80;100.00;102538.72;5015222;28;20120;-86
2023/04/17 04:31:02;;;;;;;57.50;29.13;;;;;;;8.86;100.00;102545.81;5017394;28;20067;-87
2023/04/17 04:33:28;;;;;;;58.85;28.02;;;;;;;8.49;100.00;102548.81;5023042;28;20025;-86
2023/04/17 04:35:55;;;;;;;57.50;27.98;;;;;;;8.73;100.00;102545.63;4999368;28;20029;-87
2023/04/17 04:38:28;;;;;;;52.35;25.42;;;;;;;8.75;100.00;102548.09;5003062;28;20033;-87
2023/04/17 04:41:00;;;;;;;51.78;25.58;;;;;;;8.79;100.00;102551.03;4994859;28;20033;-86
2023/04/17 04:43:27;;;;;;;51.58;25.40;;;;;;;8.75;100.00;102546.13;4993950;28;20048;-86
2023/04/17 04:45:52;;;;;;;52.78;25.65;;;;;;;8.80;100.00;102547.13;4997457;28;20030;-86
2023/04/17 04:48:18;;;;;;;60.00;28.25;;;;;;;8.68;100.00;102545.75;5019207;28;20034;-86
2023/04/17 04:50:43;;;;;;;57.15;26.75;;;;;;;8.80;100.00;102558.28;5001422;28;20084;-85
2023/04/17 04:53:09;;;;;;;50.85;23.55;;;;;;;8.89;100.00;102559.09;4995885;28;20672;-85
2023/04/17 04:55:34;;;;;;;54.90;27.40;;;;;;;8.73;100.00;102545.63;5005361;28;20035;-86
2023/04/17 04:58:00;;;;;;;56.92;27.60;;;;;;;8.62;100.00;102538.69;5021317;28;20029;-85
2023/04/17 05:00:25;;;;;;;55.30;26.52;;;;;;;8.69;100.00;102541.00;5000289;28;20021;-87
2023/04/17 05:02:50;;;;;;;53.60;26.77;;;;;;;9.00;100.00;102563.22;5015740;28;20026;-86
2023/04/17 05:05:16;;;;;;;59.90;29.23;;;;;;;8.86;100.00;102570.94;4995208;28;20029;-86
2023/04/17 05:07:41;;;;;;;59.40;28.88;;;;;;;8.49;100.00;102573.13;5011742;28;20033;-86
2023/04/17 05:10:07;;;;;;;68.75;32.63;;;;;;;8.40;100.00;102572.22;5008206;28;20033;-86
2023/04/17 05:12:33;;;;;;;71.80;32.58;;;;;;;8.46;100.00;102565.41;5002732;28;20082;-87
2023/04/17 05:14:59;;;;;;;57.65;27.98;;;;;;;8.58;100.00;102562.81;5012799;28;20371;-87
2023/04/17 05:17:25;;;;;;;60.35;29.55;;;;;;;8.66;100.00;102587.13;5003652;28;20029;-87
2023/04/17 05:19:50;;;;;;;56.35;28.63;;;;;;;8.59;100.00;102566.44;5001532;28;20036;-87
2023/04/17 05:22:16;;;;;;;53.70;29.88;;;;;;;8.65;100.00;102593.88;5010148;28;20084;-87
2023/04/17 05:24:41;;;;;;;56.17;28.02;;;;;;;8.62;100.00;102580.56;4989329;28;20108;-87
2023/04/17 05:27:06;;;;;;;60.28;30.17;;;;;;;8.65;100.00;102596.66;4995280;28;20026;-85
2023/04/17 05:29:32;;;;;;;57.70;30.27;;;;;;;8.49;100.00;102582.31;5003722;28;20133;-86
2023/04/17 05:31:57;;;;;;;58.38;30.02;;;;;;;8.55;100.00;102608.09;5005710;28;21456;-86
2023/04/17 05:34:23;;;;;;;64.25;29.50;;;;;;;8.45;100.00;102606.41;5004357;28;20437;-86
2023/04/17 05:36:48;;;;;;;57.95;30.02;;;;;;;8.45;100.00;102595.25;5003187;28;20018;-86
2023/04/17 05:39:14;;;;;;;56.72;27.50;;;;;;;8.50;100.00;102608.25;5003657;28;20093;-85
2023/04/17 05:41:39;;;;;;;63.13;31.85;;;;;;;8.43;100.00;102610.66;4997252;28;20512;-86
2023/04/17 05:44:06;;;;;;;52.47;27.52;;;;;;;8.55;100.00;102597.75;4998710;28;20497;-86
2023/04/17 05:46:32;;;;;;;57.33;28.35;;;;;;;8.64;100.00;102603.38;4993341;28;20167;-85
2023/04/17 05:48:57;;;;;;;60.13;28.17;;;;;;;8.71;100.00;102591.75;5002440;28;20120;-88
2023/04/17 05:51:22;;;;;;;57.03;27.67;;;;;;;8.82;100.00;102609.84;5004972;28;20033;-87
2023/04/17 05:53:48;;;;;;;58.97;28.92;;;;;;;8.38;100.00;102602.44;5006317;28;20037;-88
2023/04/17 05:56:13;;;;;;;59.85;29.92;;;;;;;8.17;100.00;102613.31;5004127;28;20033;-87
2023/04/17 05:58:39;;;;;;;63.40;28.73;;;;;;;8.11;100.00;102595.88;4992180;28;20559;-87
2023/04/17 06:01:05;;;;;;;55.75;27.17;;;;;;;8.35;100.00;102607.50;5006361;28;20036;-88
2023/04/17 06:03:33;;;;;;;58.97;29.02;;;;;;;8.19;100.00;102613.81;4992641;28;20044;-88
2023/04/17 06:05:59;;;;;;;52.97;28.02;;;;;;;8.54;100.00;102626.00;4992990;28;20452;-87
2023/04/17 06:08:25;;;;;;;60.60;28.73;;;;;;;8.54;100.00;102623.22;5015326;28;20034;-87
2023/04/17 06:10:51;;;;;;;53.28;28.25;;;;;;;8.83;100.00;102624.63;4996371;28;20036;-79
2023/04/17 06:13:17;;;;;;;64.30;28.42;;;;;;;8.94;100.00;102634.38;5015591;28;20029;-79
2023/04/17 06:15:42;;;;;;;50.72;26.65;;;;;;;8.91;100.00;102632.22;5011420;28;20045;-78
2023/04/17 06:18:07;;;;;;;59.55;25.98;;;;;;;8.85;100.00;102639.09;5009378;28;20051;-79
2023/04/17 06:20:33;;;;;;;57.33;29.33;;;;;;;8.95;100.00;102644.38;5015821;28;20041;-79
2023/04/17 06:22:59;;;;;;;52.08;26.85;;;;;;;8.94;100.00;102632.41;4996501;28;20025;-79
2023/04/17 06:25:25;;;;;;;53.90;26.83;;;;;;;8.96;100.00;102629.28;5011417;28;20124;-79
2023/04/17 06:27:50;;;;;;;53.38;27.05;;;;;;;8.65;100.00;102638.53;5030213;28;20487;-79
2023/04/17 06:30:16;;;;;;;55.78;28.85;;;;;;;8.74;100.00;102638.56;5026441;28;20035;-79
2023/04/17 06:32:42;;;;;;;58.83;28.05;;;;;;;8.66;100.00;102640.16;5048651;28;20914;-79
2023/04/17 06:35:11;;;;;;;60.03;30.85;;;;;;;8.42;100.00;102632.19;5023706;28;20035;-79
2023/04/17 06:37:36;;;;;;;53.92;26.92;;;;;;;8.63;100.00;102648.38;5039506;28;20025;-79
2023/04/17 06:40:02;;;;;;;55.75;30.80;;;;;;;8.72;100.00;102641.66;5038927;28;20152;-79
2023/04/17 06:42:28;;;;;;;53.67;27.60;;;;;;;8.92;100.00;102645.06;5036750;28;20041;-78
2023/04/17 06:44:53;;;;;;;59.13;28.90;;;;;;;8.72;100.00;102644.47;5023298;28;20128;-79
2023/04/17 06:47:19;;;;;;;50.53;25.00;;;;;;;8.88;100.00;102655.22;5039642;28;20052;-78
2023/04/17 06:49:44;;;;;;;55.22;26.58;;;;;;;8.78;100.00;102652.72;5037910;28;20033;-79
2023/04/17 06:52:10;;;;;;;51.38;27.90;;;;;;;8.67;100.00;102664.16;5035971;28;20106;-78
2023/04/17 06:54:35;;;;;;;58.63;29.30;;;;;;;8.39;100.00;102660.72;5036800;28;20036;-79
2023/04/17 06:57:04;;;;;;;56.22;27.35;;;;;;;8.72;100.00;102664.00;5021971;28;20025;-79
2023/04/17 06:59:30;;;;;;;53.22;26.85;;;;;;;8.64;100.00;102652.81;5029846;28;20622;-79
2023/04/17 07:01:55;;;;;;;58.08;27.45;;;;;;;8.77;100.00;102660.28;5032593;28;20033;-78
2023/04/17 07:04:21;;;;;;;58.65;28.60;;;;;;;8.57;100.00;102660.81;5036442;28;20037;-78
2023/04/17 07:06:46;;;;;;;55.28;27.50;;;;;;;8.77;100.00;102667.81;5039063;28;20088;-79
2023/04/17 07:09:11;;;;;;;58.45;29.27;;;;;;;8.78;100.00;102672.25;5017415;28;20083;-79
2023/04/17 07:11:37;;;;;;;56.33;27.08;;;;;;;8.68;100.00;102676.97;5035352;28;20037;-79
2023/04/17 07:14:02;;;;;;;53.00;25.50;;;;;;;8.85;100.00;102683.78;5032347;28;20413;-78
2023/04/17 07:16:27;;;;;;;51.85;27.88;;;;;;;8.78;100.00;102683.44;5019477;28;20406;-79
2023/04/17 07:18:53;;;;;;;56.10;26.52;;;;;;;8.74;100.00;102692.44;5016385;28;20485;-79
2023/04/17 07:21:18;;;;;;;55.20;27.15;;;;;;;8.76;100.00;102689.31;5040267;28;20035;-77
2023/04/17 07:23:44;;;;;;;57.63;28.73;;;;;;;8.51;100.00;102696.41;5032647;28;20036;-79
2023/04/17 07:26:10;;;;;;;50.70;26.40;;;;;;;8.69;100.00;102698.16;5039408;28;20039;-79
2023/04/17 07:28:37;;;;;;;53.95;25.65;;;;;;;8.77;100.00;102698.50;5017239;28;20044;-80
2023/04/17 07:31:07;;;;;;;61.35;28.55;;;;;;;8.64;100.00;102701.06;5030755;28;20033;-79
2023/04/17 07:33:33;;;;;;;59.13;29.60;;;;;;;8.86;100.00;102699.41;5036951;28;20149;-79
2023/04/17 07:35:59;;;;;;;50.08;25.77;;;;;;;8.84;100.00;102698.91;5037309;28;20596;-80
2023/04/17 07:38:24;;;;;;;51.22;26.08;;;;;;;8.87;100.00;102698.25;5018541;28;20032;-79
2023/04/17 07:40:53;;;;;;;47.88;24.77;;;;;;;8.80;100.00;102697.88;5036721;28;20037;-80
2023/04/17 07:43:18;;;;;;;47.60;24.70;;;;;;;8.85;100.00;102689.34;5045337;28;20076;-79
2023/04/17 07:45:43;;;;;;;54.67;25.50;;;;;;;8.74;100.00;102694.41;5016119;28;20483;-79
2023/04/17 07:48:09;;;;;;;49.60;24.65;;;;;;;9.12;100.00;102689.13;5035877;28;21010;-79
2023/04/17 07:50:34;;;;;;;53.10;25.88;;;;;;;8.78;100.00;102684.25;5039852;28;20441;-79
2023/04/17 07:53:00;;;;;;;53.80;25.00;;;;;;;8.97;100.00;102681.19;5021375;28;20025;-79
2023/04/17 07:55:25;;;;;;;54.30;24.98;;;;;;;8.90;100.00;102687.25;5035710;28;20091;-79
2023/04/17 07:57:51;;;;;;;52.55;25.98;;;;;;;8.98;100.00;102694.03;5040257;28;20079;-79
2023/04/17 08:00:17;;;;;;;49.35;24.80;;;;;;;8.69;100.00;102687.00;5030218;28;20039;-79
2023/04/17 08:02:43;;;;;;;52.17;24.80;;;;;;;8.87;100.00;102695.44;5020076;28;20517;-79
2023/04/17 08:05:09;;;;;;;46.15;25.73;;;;;;;8.93;100.00;102691.38;5035665;28;20056;-78
2023/04/17 08:07:35;;;;;;;46.25;23.92;;;;;;;9.11;100.00;102692.28;5020214;28;20099;-79
2023/04/17 08:10:01;;;;;;;51.63;26.85;;;;;;;9.10;100.00;102685.03;5023645;28;20428;-79
2023/04/17 08:12:27;;;;;;;47.97;23.73;;;;;;;9.14;100.00;102684.03;5036872;28;20546;-79
2023/04/17 08:14:52;;;;;;;49.33;24.80;;;;;;;8.90;100.00;102690.06;5021365;28;20726;-79
2023/04/17 08:17:21;;;;;;;47.60;25.55;;;;;;;9.22;100.00;102688.03;5040429;28;20029;-79
2023/04/17 08:19:52;;;;;;;46.13;22.98;;;;;;;9.33;100.00;102689.34;5039159;28;20060;-79
2023/04/17 08:22:20;;;;;;;41.22;23.45;;;;;;;9.31;100.00;102685.25;5042891;28;20029;-78
2023/04/17 08:24:45;;;;;;;47.13;23.17;;;;;;;9.31;100.00;102690.84;5044530;28;20387;-79
2023/04/17 08:27:12;;;;;;;45.10;22.90;;;;;;;9.46;100.00;102700.72;5042161;28;20033;-79
2023/04/17 08:29:38;;;;;;;42.58;22.92;;;;;;;9.49;100.00;102692.53;5040047;28;20033;-79
2023/04/17 08:32:04;;;;;;;45.78;23.10;;;;;;;9.33;100.00;102700.53;5018146;28;20029;-79
2023/04/17 08:34:30;;;;;;;48.72;23.63;;;;;;;9.48;100.00;102696.44;5039353;28;20067;-79
2023/04/17 08:36:56;;;;;;;45.40;23.50;;;;;;;9.67;100.00;102707.34;5046397;28;20029;-78
2023/04/17 08:39:21;;;;;;;47.28;22.55;;;;;;;9.55;100.00;102707.19;5024381;28;20039;-79
2023/04/17 08:41:57;;;;;;;43.30;22.45;;;;;;;9.57;100.00;102708.50;5027722;28;20040;-79
2023/04/17 08:44:22;;;;;;;45.67;23.27;;;;;;;9.67;100.00;102706.53;5040974;28;20071;-79
2023/04/17 08:46:49;;;;;;;45.15;22.13;;;;;;;9.61;100.00;102721.81;5021232;28;20112;-79
2023/04/17 08:49:15;;;;;;;52.50;22.85;;;;;;;9.64;100.00;102713.59;5042116;28;20087;-79
2023/04/17 08:51:41;;;;;;;47.25;25.30;;;;;;;9.57;100.00;102716.03;5034779;28;20029;-79
2023/04/17 08:54:06;;;;;;;47.28;23.08;;;;;;;9.42;100.00;102720.13;5040064;28;20036;-79
2023/04/17 08:56:31;;;;;;;43.50;23.85;;;;;;;9.56;100.00;102720.81;5017843;28;20384;-79
2023/04/17 08:58:57;;;;;;;41.63;23.13;;;;;;;9.73;100.00;102716.41;5016171;28;20473;-79
2023/04/17 09:01:22;;;;;;;41.55;22.10;;;;;;;9.62;100.00;102713.09;5036498;28;20032;-79
2023/04/17 09:03:50;;;;;;;52.08;25.90;;;;;;;9.80;100.00;102722.31;5035224;28;20029;-78
2023/04/17 09:06:16;;;;;;;52.10;25.25;;;;;;;10.04;100.00;102721.84;5035576;28;20155;-78
2023/04/17 09:08:58;;;;;;;45.58;23.85;;;;;;;10.07;100.00;102720.38;5016422;28;20125;-79
2023/04/17 09:11:24;;;;;;;41.40;23.67;;;;;;;10.28;100.00;102723.31;5032363;28;20537;-79
2023/04/17 09:13:49;;;;;;;45.13;23.95;;;;;;;10.51;100.00;102719.19;5015115;28;20087;-79
2023/04/17 09:16:15;;;;;;;44.65;23.30;;;;;;;10.70;100.00;102715.19;5027451;28;20021;-79
2023/04/17 09:18:42;;;;;;;45.97;24.95;;;;;;;10.56;100.00;102723.78;5014740;28;20032;-79
2023/04/17 09:21:08;;;;;;;47.92;25.27;;;;;;;10.99;100.00;102737.66;5019694;28;20029;-79
2023/04/17 09:23:57;;;;;;;45.08;23.85;;;;;;;10.74;100.00;102725.38;5016671;28;20074;-79
2023/04/17 09:26:29;;;;;;;45.00;24.00;;;;;;;10.69;100.00;102727.53;5015280;28;20048;-79
2023/04/17 09:29:13;;;;;;;50.90;26.77;;;;;;;10.38;100.00;102723.00;5015629;28;20055;-76
2023/04/17 09:31:40;;;;;;;63.08;24.20;;;;;;;10.45;100.00;102726.13;5012732;28;22029;-79
2023/04/17 09:34:07;;;;;;;49.85;26.92;;;;;;;10.54;100.00;102726.09;5018254;28;20032;-79
2023/04/17 09:36:35;;;;;;;49.15;26.85;;;;;;;10.59;100.00;102723.13;5031172;28;20103;-79
2023/04/17 09:39:03;;;;;;;50.40;25.55;;;;;;;10.58;100.00;102718.66;5033648;28;20116;-79
2023/04/17 09:41:35;;;;;;;57.55;26.15;;;;;;;10.76;100.00;102717.47;5017202;28;21438;-79
2023/04/17 09:44:04;;;;;;;42.22;24.45;;;;;;;10.86;100.00;102721.91;5016563;28;20367;-79
2023/04/17 09:46:44;;;;;;;50.63;24.73;;;;;;;11.04;100.00;102724.63;5034905;28;20128;-79
2023/04/17 09:49:28;;;;;;;44.47;24.02;;;;;;;10.95;100.00;102719.06;5018569;28;20025;-80
2023/04/17 09:51:55;;;;;;;45.97;22.92;;;;;;;11.08;100.00;102718.00;5040320;28;20021;-79
2023/04/17 09:54:22;;;;;;;48.30;24.70;;;;;;;11.04;100.00;102719.84;5037551;28;20033;-79
2023/04/17 09:56:48;;;;;;;53.90;24.83;;;;;;;11.26;100.00;102729.97;5035362;28;20032;-80
2023/04/17 09:59:15;;;;;;;50.22;24.85;;;;;;;11.51;100.00;102725.38;5019867;28;20477;-79
2023/04/17 10:01:41;;;;;;;55.67;25.98;;;;;;;11.46;100.00;102721.94;5015170;28;20568;-80
2023/04/17 10:04:06;;;;;;;44.00;25.60;;;;;;;11.42;100.00;102727.41;5008991;28;20033;-79
2023/04/17 10:06:33;;;;;;;49.65;25.23;;;;;;;12.04;100.00;102720.25;5033081;28;20020;-79
2023/04/17 10:08:59;;;;;;;45.53;23.98;;;;;;;11.73;100.00;102712.22;5021682;28;20075;-80
2023/04/17 10:11:29;;;;;;;49.42;25.20;;;;;;;11.80;100.00;102721.72;5031194;28;20454;-79
2023/04/17 10:14:09;;;;;;;50.85;26.75;;;;;;;11.79;100.00;102708.84;5036202;28;20116;-79
2023/04/17 10:16:37;;;;;;;51.22;24.42;;;;;;;11.87;100.00;102709.97;5015801;28;20051;-79
2023/04/17 10:19:29;;;;;;;43.13;24.33;;;;;;;12.10;100.00;102718.03;5025841;28;20448;-79
2023/04/17 10:22:13;;;;;;;54.50;25.60;;;;;;;12.21;100.00;102710.84;5039562;28;20032;-79
2023/04/17 10:24:38;;;;;;;48.05;23.40;;;;;;;12.70;100.00;102701.75;5037622;28;20033;-79
2023/04/17 10:27:25;;;;;;;40.03;23.88;;;;;;;12.61;100.00;102704.66;5039284;28;20417;-79
2023/04/17 10:29:51;;;;;;;43.50;23.77;;;;;;;12.79;100.00;102708.09;5038052;28;20056;-79
2023/04/17 10:32:16;;;;;;;45.42;25.02;;;;;;;12.98;100.00;102701.91;5023407;28;20132;-79
2023/04/17 10:34:41;;;;;;;43.08;23.50;;;;;;;12.96;100.00;102698.63;5038003;28;20520;-79
2023/04/17 10:37:07;;;;;;;47.55;23.33;;;;;;;12.67;100.00;102694.84;5043694;28;20469;-79
2023/04/17 10:39:50;;;;;;;41.42;24.80;;;;;;;12.67;100.00;102697.66;5019962;28;20684;-79
2023/04/17 10:42:20;;;;;;;44.03;23.13;;;;;;;12.53;100.00;102700.78;5037577;28;20029;-79
2023/04/17 10:44:46;;;;;;;41.05;24.50;;;;;;;12.80;100.00;102702.13;5021457;28;20033;-79
2023/04/17 10:47:15;;;;;;;39.22;22.17;;;;;;;12.98;100.00;102707.53;5038968;28;20029;-79
2023/04/17 10:49:50;;;;;;;45.90;23.85;;;;;;;13.28;100.00;102710.09;5017681;28;20090;-80
2023/04/17 10:52:31;;;;;;;44.15;24.90;;;;;;;13.10;100.00;102703.91;5016627;28;20029;-79
2023/04/17 10:55:19;;;;;;;42.47;23.52;;;;;;;12.93;100.00;102704.94;5033285;28;20168;-79
2023/04/17 10:57:53;;;;;;;49.53;22.67;;;;;;;13.55;100.00;102702.97;5016083;28;20035;-79
2023/04/17 11:00:26;;;;;;;46.22;24.92;;;;;;;13.64;100.00;102695.22;5026497;28;20033;-80
2023/04/17 11:02:52;;;;;;;39.60;24.00;;;;;;;13.32;100.00;102694.19;5036411;28;20096;-80
2023/04/17 11:05:19;;;;;;;41.22;24.25;;;;;;;13.10;100.00;102699.09;5019156;28;20028;-80